HKE522 VHHH-RPLC
Flight info
| Callsign | HKE522 |
|---|---|
| Flight time | 1h 32m |
| Altitude | 33000 |
| Route | DALOL V642 NOMAN A461 SANRO W4 MALIB |
| Aircraft | A20N/M-SDE2E3FGHIJ1RWXY/LB1 |
Departure
| Time | 2026-05-08 05:26 |
|---|---|
| Airport | Hong Kong International Airport (VHHH) |
Arrival
| Time | 2026-05-08 06:58 |
|---|---|
| Airport | Clark International Airport / Clark Air Base (RPLC) |
| Time | Latitude | Longitude | Altitude | Speed | Heading |
|---|---|---|---|---|---|
| 2026-05-08 05:03 | 22.31207 | 113.91772 | 32 ft | 0 kts | 251° |
| 2026-05-08 05:16 | 22.31208 | 113.91775 | 32 ft | 2 kts | 251° |
| 2026-05-08 05:16 | 22.31213 | 113.91791 | 32 ft | 2 kts | 251° |
| 2026-05-08 05:16 | 22.31218 | 113.91806 | 32 ft | 2 kts | 251° |
| 2026-05-08 05:16 | 22.31223 | 113.91821 | 32 ft | 2 kts | 251° |
| 2026-05-08 05:17 | 22.31228 | 113.91836 | 32 ft | 2 kts | 251° |
| 2026-05-08 05:17 | 22.31231 | 113.91853 | 32 ft | 2 kts | 278° |
| 2026-05-08 05:17 | 22.31226 | 113.91869 | 32 ft | 2 kts | 304° |
| 2026-05-08 05:17 | 22.31215 | 113.91880 | 32 ft | 2 kts | 332° |
| 2026-05-08 05:18 | 22.31201 | 113.91885 | 32 ft | 2 kts | 344° |
| 2026-05-08 05:18 | 22.31187 | 113.91890 | 32 ft | 1 kts | 340° |
| 2026-05-08 05:18 | 22.31186 | 113.91891 | 32 ft | 0 kts | 341° |
| 2026-05-08 05:20 | 22.31189 | 113.91889 | 32 ft | 2 kts | 341° |
| 2026-05-08 05:21 | 22.31233 | 113.91873 | 32 ft | 11 kts | 341° |
| 2026-05-08 05:21 | 22.31322 | 113.91840 | 32 ft | 14 kts | 341° |
| 2026-05-08 05:21 | 22.31416 | 113.91805 | 32 ft | 14 kts | 341° |
| 2026-05-08 05:21 | 22.31501 | 113.91775 | 32 ft | 11 kts | 349° |
| 2026-05-08 05:22 | 22.31560 | 113.91818 | 32 ft | 11 kts | 69° |
| 2026-05-08 05:22 | 22.31587 | 113.91904 | 32 ft | 12 kts | 70° |
| 2026-05-08 05:22 | 22.31622 | 113.92011 | 32 ft | 18 kts | 70° |
| 2026-05-08 05:22 | 22.31664 | 113.92143 | 32 ft | 18 kts | 70° |
| 2026-05-08 05:23 | 22.31707 | 113.92274 | 32 ft | 18 kts | 71° |
| 2026-05-08 05:23 | 22.31747 | 113.92401 | 32 ft | 17 kts | 71° |
| 2026-05-08 05:23 | 22.31789 | 113.92529 | 32 ft | 17 kts | 71° |
| 2026-05-08 05:23 | 22.31829 | 113.92654 | 32 ft | 17 kts | 71° |
| 2026-05-08 05:24 | 22.31869 | 113.92776 | 32 ft | 17 kts | 71° |
| 2026-05-08 05:24 | 22.31907 | 113.92897 | 32 ft | 16 kts | 71° |
| 2026-05-08 05:24 | 22.31935 | 113.92983 | 32 ft | 10 kts | 70° |
| 2026-05-08 05:24 | 22.31980 | 113.93041 | 32 ft | 10 kts | 27° |
| 2026-05-08 05:25 | 22.32055 | 113.93048 | 32 ft | 11 kts | 343° |
| 2026-05-08 05:25 | 22.32110 | 113.93027 | 32 ft | 5 kts | 332° |
| 2026-05-08 05:25 | 22.32119 | 113.92985 | 32 ft | 6 kts | 252° |
| 2026-05-08 05:25 | 22.32083 | 113.92875 | 32 ft | 43 kts | 251° |
| 2026-05-08 05:26 | 22.31897 | 113.92297 | 32 ft | 115 kts | 250° |
| 2026-05-08 05:26 | 22.31569 | 113.91277 | 68 ft | 168 kts | 251° |
| 2026-05-08 05:26 | 22.31179 | 113.90067 | 634 ft | 174 kts | 251° |
| 2026-05-08 05:26 | 22.30786 | 113.88845 | 1335 ft | 178 kts | 252° |
| 2026-05-08 05:27 | 22.30382 | 113.87590 | 2019 ft | 181 kts | 252° |
| 2026-05-08 05:27 | 22.29952 | 113.86253 | 2502 ft | 195 kts | 252° |
| 2026-05-08 05:27 | 22.29491 | 113.84821 | 2899 ft | 214 kts | 252° |
| 2026-05-08 05:27 | 22.28977 | 113.83220 | 3291 ft | 236 kts | 252° |
| 2026-05-08 05:28 | 22.28432 | 113.81530 | 4005 ft | 244 kts | 252° |
| 2026-05-08 05:28 | 22.27879 | 113.79822 | 4844 ft | 246 kts | 252° |
| 2026-05-08 05:28 | 22.27315 | 113.78075 | 5679 ft | 249 kts | 252° |
| 2026-05-08 05:28 | 22.26742 | 113.76302 | 6474 ft | 254 kts | 252° |
| 2026-05-08 05:29 | 22.26066 | 113.74492 | 7014 ft | 271 kts | 240° |
| 2026-05-08 05:29 | 22.24834 | 113.72917 | 7682 ft | 283 kts | 219° |
| 2026-05-08 05:29 | 22.23180 | 113.71748 | 8541 ft | 288 kts | 207° |
| 2026-05-08 05:29 | 22.21245 | 113.71242 | 9343 ft | 295 kts | 180° |
| 2026-05-08 05:30 | 22.19263 | 113.71721 | 10165 ft | 300 kts | 159° |
| 2026-05-08 05:30 | 22.17334 | 113.72621 | 10811 ft | 311 kts | 156° |
| 2026-05-08 05:30 | 22.15299 | 113.73608 | 11220 ft | 329 kts | 156° |
| 2026-05-08 05:30 | 22.13199 | 113.74723 | 11594 ft | 348 kts | 151° |
| 2026-05-08 05:31 | 22.11111 | 113.76144 | 12002 ft | 364 kts | 144° |
| 2026-05-08 05:31 | 22.09092 | 113.77853 | 12706 ft | 370 kts | 140° |
| 2026-05-08 05:31 | 22.07343 | 113.79853 | 13456 ft | 373 kts | 124° |
| 2026-05-08 05:31 | 22.06159 | 113.82316 | 14195 ft | 375 kts | 108° |
| 2026-05-08 05:32 | 22.05514 | 113.85052 | 14948 ft | 378 kts | 101° |
| 2026-05-08 05:32 | 22.05008 | 113.87817 | 15648 ft | 382 kts | 100° |
| 2026-05-08 05:32 | 22.04493 | 113.90652 | 16343 ft | 386 kts | 100° |
| 2026-05-08 05:32 | 22.03956 | 113.93484 | 17026 ft | 389 kts | 101° |
| 2026-05-08 05:33 | 22.03395 | 113.96349 | 17692 ft | 393 kts | 101° |
| 2026-05-08 05:33 | 22.02830 | 113.99202 | 18329 ft | 396 kts | 101° |
| 2026-05-08 05:33 | 22.02247 | 114.02126 | 18960 ft | 400 kts | 101° |
| 2026-05-08 05:33 | 22.01663 | 114.05054 | 19570 ft | 403 kts | 101° |
| 2026-05-08 05:34 | 22.01077 | 114.07988 | 20172 ft | 406 kts | 101° |
| 2026-05-08 05:34 | 22.00372 | 114.10976 | 20766 ft | 410 kts | 106° |
| 2026-05-08 05:34 | 21.99420 | 114.13852 | 21345 ft | 414 kts | 111° |
| 2026-05-08 05:34 | 21.98198 | 114.16674 | 21923 ft | 418 kts | 116° |
| 2026-05-08 05:35 | 21.96866 | 114.19439 | 22488 ft | 421 kts | 116° |
| 2026-05-08 05:35 | 21.95483 | 114.22259 | 23045 ft | 424 kts | 116° |
| 2026-05-08 05:35 | 21.94124 | 114.25043 | 23578 ft | 427 kts | 116° |
| 2026-05-08 05:35 | 21.92737 | 114.27896 | 24107 ft | 430 kts | 116° |
| 2026-05-08 05:36 | 21.91344 | 114.30769 | 24620 ft | 433 kts | 116° |
| 2026-05-08 05:36 | 21.89955 | 114.33636 | 25112 ft | 436 kts | 116° |
| 2026-05-08 05:36 | 21.88556 | 114.36522 | 25591 ft | 439 kts | 116° |
| 2026-05-08 05:36 | 21.87141 | 114.39439 | 26052 ft | 442 kts | 116° |
| 2026-05-08 05:37 | 21.85798 | 114.42399 | 26496 ft | 444 kts | 112° |
| 2026-05-08 05:37 | 21.84575 | 114.45476 | 26937 ft | 446 kts | 111° |
| 2026-05-08 05:37 | 21.83396 | 114.48531 | 27406 ft | 447 kts | 111° |
| 2026-05-08 05:37 | 21.82223 | 114.51588 | 27988 ft | 445 kts | 111° |
| 2026-05-08 05:38 | 21.81045 | 114.54652 | 28568 ft | 442 kts | 111° |
| 2026-05-08 05:38 | 21.79864 | 114.57718 | 29102 ft | 440 kts | 111° |
| 2026-05-08 05:38 | 21.78709 | 114.60712 | 29589 ft | 439 kts | 111° |
| 2026-05-08 05:38 | 21.77530 | 114.63764 | 30066 ft | 438 kts | 111° |
| 2026-05-08 05:39 | 21.76370 | 114.66766 | 30521 ft | 437 kts | 111° |
| 2026-05-08 05:39 | 21.75221 | 114.69738 | 30955 ft | 435 kts | 111° |
| 2026-05-08 05:39 | 21.74060 | 114.72736 | 31369 ft | 434 kts | 111° |
| 2026-05-08 05:39 | 21.72902 | 114.75727 | 31720 ft | 435 kts | 111° |
| 2026-05-08 05:40 | 21.71738 | 114.78731 | 32029 ft | 436 kts | 111° |
| 2026-05-08 05:40 | 21.70575 | 114.81731 | 32330 ft | 437 kts | 111° |
| 2026-05-08 05:40 | 21.69406 | 114.84744 | 32630 ft | 438 kts | 111° |
| 2026-05-08 05:40 | 21.68238 | 114.87750 | 32907 ft | 439 kts | 111° |
| 2026-05-08 05:41 | 21.67055 | 114.90794 | 32970 ft | 441 kts | 111° |
| 2026-05-08 05:41 | 21.64557 | 114.96766 | 32975 ft | 441 kts | 115° |
| 2026-05-08 05:42 | 21.61028 | 115.02168 | 32978 ft | 444 kts | 132° |
| 2026-05-08 05:42 | 21.56684 | 115.06795 | 32978 ft | 442 kts | 134° |
| 2026-05-08 05:43 | 21.52319 | 115.11446 | 32978 ft | 440 kts | 133° |
| 2026-05-08 05:43 | 21.48036 | 115.16095 | 32978 ft | 439 kts | 133° |
| 2026-05-08 05:44 | 21.43791 | 115.20737 | 32977 ft | 437 kts | 133° |
| 2026-05-08 05:44 | 21.39532 | 115.25402 | 32968 ft | 437 kts | 133° |
| 2026-05-08 05:45 | 21.35319 | 115.30019 | 32958 ft | 437 kts | 133° |
| 2026-05-08 05:45 | 21.31078 | 115.34663 | 32953 ft | 437 kts | 133° |
| 2026-05-08 05:46 | 21.26827 | 115.39316 | 32951 ft | 437 kts | 133° |
| 2026-05-08 05:46 | 21.22586 | 115.43953 | 32951 ft | 437 kts | 133° |
| 2026-05-08 05:47 | 21.18329 | 115.48602 | 32950 ft | 437 kts | 133° |
| 2026-05-08 05:47 | 21.14095 | 115.53225 | 32951 ft | 437 kts | 133° |
| 2026-05-08 05:48 | 21.09870 | 115.57833 | 32950 ft | 437 kts | 133° |
| 2026-05-08 05:48 | 21.05610 | 115.62476 | 32950 ft | 437 kts | 133° |
| 2026-05-08 05:49 | 21.01364 | 115.67100 | 32950 ft | 438 kts | 133° |
| 2026-05-08 05:49 | 20.97081 | 115.71757 | 32950 ft | 439 kts | 133° |
| 2026-05-08 05:50 | 20.92806 | 115.76403 | 32950 ft | 439 kts | 134° |
| 2026-05-08 05:50 | 20.88537 | 115.81036 | 32950 ft | 439 kts | 133° |
| 2026-05-08 05:51 | 20.84258 | 115.85677 | 32950 ft | 439 kts | 133° |
| 2026-05-08 05:51 | 20.79982 | 115.90314 | 32950 ft | 439 kts | 133° |
| 2026-05-08 05:52 | 20.75711 | 115.94939 | 32950 ft | 439 kts | 133° |
| 2026-05-08 05:52 | 20.71459 | 115.99540 | 32950 ft | 439 kts | 133° |
| 2026-05-08 05:53 | 20.67153 | 116.04195 | 32950 ft | 439 kts | 133° |
| 2026-05-08 05:53 | 20.62878 | 116.08813 | 32950 ft | 439 kts | 133° |
| 2026-05-08 05:54 | 20.58603 | 116.13427 | 32950 ft | 439 kts | 133° |
| 2026-05-08 05:54 | 20.54310 | 116.18057 | 32950 ft | 439 kts | 133° |
| 2026-05-08 05:55 | 20.50034 | 116.22665 | 32950 ft | 439 kts | 133° |
| 2026-05-08 05:55 | 20.45760 | 116.27266 | 32950 ft | 439 kts | 133° |
| 2026-05-08 05:56 | 20.41463 | 116.31889 | 32950 ft | 439 kts | 133° |
| 2026-05-08 05:56 | 20.37187 | 116.36485 | 32950 ft | 439 kts | 133° |
| 2026-05-08 05:57 | 20.32906 | 116.41082 | 32950 ft | 439 kts | 133° |
| 2026-05-08 05:57 | 20.28605 | 116.45697 | 32950 ft | 439 kts | 133° |
| 2026-05-08 05:58 | 20.24325 | 116.50286 | 32950 ft | 439 kts | 133° |
| 2026-05-08 05:58 | 20.20046 | 116.54869 | 32950 ft | 439 kts | 133° |
| 2026-05-08 05:59 | 20.15746 | 116.59472 | 32951 ft | 439 kts | 133° |
| 2026-05-08 05:59 | 20.11450 | 116.64067 | 32951 ft | 439 kts | 133° |
| 2026-05-08 06:00 | 20.07142 | 116.68670 | 32950 ft | 439 kts | 134° |
| 2026-05-08 06:00 | 20.02856 | 116.73244 | 32950 ft | 439 kts | 134° |
| 2026-05-08 06:01 | 19.98564 | 116.77824 | 32950 ft | 439 kts | 134° |
| 2026-05-08 06:01 | 19.94269 | 116.82402 | 32950 ft | 439 kts | 134° |
| 2026-05-08 06:02 | 19.89966 | 116.86985 | 32950 ft | 439 kts | 134° |
| 2026-05-08 06:02 | 19.85668 | 116.91558 | 32950 ft | 438 kts | 134° |
| 2026-05-08 06:03 | 19.81388 | 116.96108 | 32945 ft | 434 kts | 134° |
| 2026-05-08 06:03 | 19.77148 | 117.00615 | 32933 ft | 429 kts | 134° |
| 2026-05-08 06:04 | 19.72966 | 117.05060 | 32919 ft | 425 kts | 134° |
| 2026-05-08 06:04 | 19.68814 | 117.09470 | 32907 ft | 421 kts | 135° |
| 2026-05-08 06:05 | 19.64693 | 117.13841 | 32899 ft | 419 kts | 135° |
| 2026-05-08 06:05 | 19.60605 | 117.18164 | 32896 ft | 419 kts | 135° |
| 2026-05-08 06:06 | 19.56496 | 117.22509 | 32896 ft | 419 kts | 135° |
| 2026-05-08 06:06 | 19.52365 | 117.26877 | 32895 ft | 419 kts | 135° |
| 2026-05-08 06:07 | 19.48256 | 117.31218 | 32895 ft | 419 kts | 135° |
| 2026-05-08 06:07 | 19.44139 | 117.35566 | 32895 ft | 419 kts | 135° |
| 2026-05-08 06:08 | 19.40024 | 117.39907 | 32895 ft | 419 kts | 135° |
| 2026-05-08 06:08 | 19.35912 | 117.44243 | 32898 ft | 427 kts | 135° |
| 2026-05-08 06:09 | 19.31633 | 117.48750 | 32898 ft | 439 kts | 135° |
| 2026-05-08 06:09 | 19.27323 | 117.53288 | 32896 ft | 440 kts | 135° |
| 2026-05-08 06:10 | 19.22992 | 117.57845 | 32896 ft | 440 kts | 135° |
| 2026-05-08 06:10 | 19.18673 | 117.62384 | 32896 ft | 440 kts | 135° |
| 2026-05-08 06:11 | 19.14344 | 117.66931 | 32896 ft | 440 kts | 136° |
| 2026-05-08 06:11 | 19.09998 | 117.71493 | 32895 ft | 440 kts | 136° |
| 2026-05-08 06:12 | 19.05662 | 117.76040 | 32895 ft | 440 kts | 136° |
| 2026-05-08 06:12 | 19.01403 | 117.80637 | 32894 ft | 440 kts | 133° |
| 2026-05-08 06:13 | 18.97217 | 117.85395 | 32894 ft | 441 kts | 133° |
| 2026-05-08 06:13 | 18.93075 | 117.90107 | 32894 ft | 442 kts | 133° |
| 2026-05-08 06:14 | 18.88895 | 117.94861 | 32895 ft | 443 kts | 132° |
| 2026-05-08 06:14 | 18.84690 | 117.99642 | 32890 ft | 444 kts | 132° |
| 2026-05-08 06:15 | 18.80523 | 118.04377 | 32878 ft | 444 kts | 132° |
| 2026-05-08 06:15 | 18.76330 | 118.09136 | 32871 ft | 444 kts | 132° |
| 2026-05-08 06:16 | 18.72142 | 118.13887 | 32868 ft | 444 kts | 132° |
| 2026-05-08 06:16 | 18.67946 | 118.18641 | 32867 ft | 444 kts | 132° |
| 2026-05-08 06:17 | 18.61659 | 118.25758 | 32867 ft | 444 kts | 132° |
| 2026-05-08 06:17 | 18.57455 | 118.30511 | 32867 ft | 444 kts | 132° |
| 2026-05-08 06:18 | 18.53269 | 118.35242 | 32867 ft | 444 kts | 132° |
| 2026-05-08 06:18 | 18.49072 | 118.39981 | 32867 ft | 444 kts | 132° |
| 2026-05-08 06:19 | 18.44870 | 118.44722 | 32867 ft | 443 kts | 132° |
| 2026-05-08 06:19 | 18.40669 | 118.49458 | 32867 ft | 444 kts | 132° |
| 2026-05-08 06:20 | 18.36461 | 118.54198 | 32867 ft | 444 kts | 132° |
| 2026-05-08 06:20 | 18.32268 | 118.58918 | 32867 ft | 443 kts | 132° |
| 2026-05-08 06:21 | 18.28062 | 118.63649 | 32867 ft | 443 kts | 132° |
| 2026-05-08 06:21 | 18.23868 | 118.68363 | 32867 ft | 443 kts | 133° |
| 2026-05-08 06:22 | 18.19664 | 118.73085 | 32867 ft | 443 kts | 133° |
| 2026-05-08 06:22 | 18.15470 | 118.77792 | 32867 ft | 443 kts | 133° |
| 2026-05-08 06:23 | 18.11252 | 118.82521 | 32868 ft | 443 kts | 133° |
| 2026-05-08 06:23 | 18.07043 | 118.87236 | 32868 ft | 442 kts | 132° |
| 2026-05-08 06:24 | 18.02860 | 118.91921 | 32868 ft | 442 kts | 132° |
| 2026-05-08 06:24 | 17.98665 | 118.96613 | 32868 ft | 441 kts | 132° |
| 2026-05-08 06:25 | 17.94482 | 119.01285 | 32868 ft | 440 kts | 132° |
| 2026-05-08 06:25 | 17.90299 | 119.05956 | 32867 ft | 440 kts | 131° |
| 2026-05-08 06:26 | 17.86126 | 119.10616 | 32867 ft | 439 kts | 131° |
| 2026-05-08 06:26 | 17.81957 | 119.15266 | 32867 ft | 439 kts | 131° |
| 2026-05-08 06:27 | 17.77778 | 119.19925 | 32867 ft | 439 kts | 131° |
| 2026-05-08 06:27 | 17.73587 | 119.24593 | 32867 ft | 439 kts | 131° |
| 2026-05-08 06:28 | 17.69415 | 119.29235 | 32867 ft | 439 kts | 131° |
| 2026-05-08 06:28 | 17.65236 | 119.33882 | 32867 ft | 439 kts | 131° |
| 2026-05-08 06:29 | 17.61044 | 119.38541 | 32867 ft | 439 kts | 131° |
| 2026-05-08 06:29 | 17.56872 | 119.43175 | 32867 ft | 439 kts | 131° |
| 2026-05-08 06:30 | 17.52696 | 119.47808 | 32867 ft | 439 kts | 131° |
| 2026-05-08 06:30 | 17.48521 | 119.52438 | 32867 ft | 439 kts | 131° |
| 2026-05-08 06:31 | 17.44338 | 119.57073 | 32867 ft | 439 kts | 131° |
| 2026-05-08 06:31 | 17.40143 | 119.61718 | 32867 ft | 439 kts | 131° |
| 2026-05-08 06:32 | 17.35960 | 119.66347 | 32868 ft | 439 kts | 132° |
| 2026-05-08 06:32 | 17.31791 | 119.70956 | 32867 ft | 439 kts | 132° |
| 2026-05-08 06:33 | 17.27606 | 119.75580 | 32867 ft | 439 kts | 132° |
| 2026-05-08 06:33 | 17.23407 | 119.80216 | 32867 ft | 439 kts | 132° |
| 2026-05-08 06:34 | 17.19201 | 119.84858 | 32867 ft | 439 kts | 132° |
| 2026-05-08 06:34 | 17.15013 | 119.89475 | 32867 ft | 439 kts | 132° |
| 2026-05-08 06:35 | 17.10835 | 119.94079 | 32867 ft | 439 kts | 132° |
| 2026-05-08 06:35 | 17.06646 | 119.98692 | 32866 ft | 439 kts | 132° |
| 2026-05-08 06:36 | 17.02451 | 120.03307 | 32866 ft | 440 kts | 132° |
| 2026-05-08 06:36 | 16.98235 | 120.07944 | 32657 ft | 441 kts | 132° |
| 2026-05-08 06:37 | 16.96130 | 120.10255 | 32406 ft | 439 kts | 132° |
| 2026-05-08 06:37 | 16.94030 | 120.12562 | 32154 ft | 438 kts | 131° |
| 2026-05-08 06:37 | 16.91930 | 120.14868 | 31902 ft | 436 kts | 131° |
| 2026-05-08 06:37 | 16.89860 | 120.17139 | 31654 ft | 435 kts | 131° |
| 2026-05-08 06:38 | 16.87787 | 120.19415 | 31405 ft | 436 kts | 131° |
| 2026-05-08 06:38 | 16.85701 | 120.21705 | 31063 ft | 437 kts | 131° |
| 2026-05-08 06:38 | 16.83609 | 120.23999 | 30535 ft | 439 kts | 131° |
| 2026-05-08 06:38 | 16.81497 | 120.26315 | 29867 ft | 440 kts | 131° |
| 2026-05-08 06:39 | 16.79413 | 120.28599 | 29125 ft | 442 kts | 131° |
| 2026-05-08 06:39 | 16.77303 | 120.30911 | 28313 ft | 444 kts | 131° |
| 2026-05-08 06:39 | 16.75098 | 120.33167 | 27516 ft | 448 kts | 138° |
| 2026-05-08 06:39 | 16.72514 | 120.34952 | 26958 ft | 447 kts | 150° |
| 2026-05-08 06:40 | 16.69630 | 120.36135 | 26353 ft | 449 kts | 162° |
| 2026-05-08 06:40 | 16.66589 | 120.36724 | 25766 ft | 448 kts | 169° |
| 2026-05-08 06:40 | 16.63494 | 120.37135 | 25203 ft | 445 kts | 171° |
| 2026-05-08 06:40 | 16.60476 | 120.37506 | 24654 ft | 442 kts | 171° |
| 2026-05-08 06:41 | 16.57439 | 120.37882 | 24102 ft | 439 kts | 171° |
| 2026-05-08 06:41 | 16.54421 | 120.38264 | 23553 ft | 436 kts | 171° |
| 2026-05-08 06:41 | 16.51449 | 120.38648 | 23010 ft | 433 kts | 171° |
| 2026-05-08 06:41 | 16.48459 | 120.39037 | 22464 ft | 431 kts | 171° |
| 2026-05-08 06:42 | 16.45501 | 120.39426 | 21921 ft | 428 kts | 171° |
| 2026-05-08 06:42 | 16.42579 | 120.39811 | 21384 ft | 426 kts | 171° |
| 2026-05-08 06:42 | 16.39672 | 120.40196 | 20847 ft | 423 kts | 172° |
| 2026-05-08 06:42 | 16.36745 | 120.40582 | 20305 ft | 421 kts | 172° |
| 2026-05-08 06:43 | 16.33876 | 120.40962 | 19773 ft | 419 kts | 172° |
| 2026-05-08 06:43 | 16.31024 | 120.41338 | 19241 ft | 416 kts | 172° |
| 2026-05-08 06:43 | 16.28147 | 120.41718 | 18703 ft | 414 kts | 172° |
| 2026-05-08 06:43 | 16.25333 | 120.42091 | 18174 ft | 412 kts | 172° |
| 2026-05-08 06:44 | 16.22504 | 120.42464 | 17642 ft | 409 kts | 172° |
| 2026-05-08 06:44 | 16.19675 | 120.42838 | 17108 ft | 407 kts | 173° |
| 2026-05-08 06:44 | 16.16916 | 120.43201 | 16585 ft | 405 kts | 173° |
| 2026-05-08 06:44 | 16.14140 | 120.43568 | 16057 ft | 402 kts | 173° |
| 2026-05-08 06:45 | 16.11381 | 120.43932 | 15531 ft | 400 kts | 173° |
| 2026-05-08 06:45 | 16.08618 | 120.44296 | 15003 ft | 398 kts | 173° |
| 2026-05-08 06:45 | 16.05913 | 120.44653 | 14483 ft | 395 kts | 173° |
| 2026-05-08 06:45 | 16.03194 | 120.45011 | 13959 ft | 392 kts | 174° |
| 2026-05-08 06:46 | 16.00514 | 120.45364 | 13440 ft | 390 kts | 174° |
| 2026-05-08 06:46 | 15.97857 | 120.45714 | 12923 ft | 387 kts | 174° |
| 2026-05-08 06:46 | 15.95197 | 120.46064 | 12405 ft | 384 kts | 174° |
| 2026-05-08 06:46 | 15.92573 | 120.46410 | 11891 ft | 381 kts | 174° |
| 2026-05-08 06:47 | 15.89963 | 120.46751 | 11373 ft | 379 kts | 174° |
| 2026-05-08 06:47 | 15.87367 | 120.47092 | 10917 ft | 373 kts | 174° |
| 2026-05-08 06:47 | 15.84843 | 120.47423 | 10637 ft | 362 kts | 174° |
| 2026-05-08 06:47 | 15.82371 | 120.47749 | 10464 ft | 349 kts | 174° |
| 2026-05-08 06:48 | 15.80029 | 120.48058 | 10289 ft | 337 kts | 174° |
| 2026-05-08 06:48 | 15.77731 | 120.48361 | 10125 ft | 325 kts | 174° |
| 2026-05-08 06:48 | 15.75554 | 120.48648 | 9980 ft | 314 kts | 174° |
| 2026-05-08 06:48 | 15.73407 | 120.48930 | 9702 ft | 308 kts | 174° |
| 2026-05-08 06:49 | 15.71300 | 120.49206 | 9322 ft | 306 kts | 174° |
| 2026-05-08 06:49 | 15.69192 | 120.49483 | 9023 ft | 303 kts | 173° |
| 2026-05-08 06:49 | 15.67183 | 120.49834 | 8997 ft | 288 kts | 170° |
| 2026-05-08 06:49 | 15.65236 | 120.50230 | 8999 ft | 283 kts | 169° |
| 2026-05-08 06:50 | 15.63316 | 120.50627 | 9000 ft | 283 kts | 169° |
| 2026-05-08 06:50 | 15.61389 | 120.51025 | 9000 ft | 283 kts | 169° |
| 2026-05-08 06:50 | 15.59452 | 120.51424 | 9000 ft | 283 kts | 169° |
| 2026-05-08 06:50 | 15.57551 | 120.51814 | 8838 ft | 278 kts | 169° |
| 2026-05-08 06:51 | 15.55675 | 120.52199 | 8542 ft | 275 kts | 169° |
| 2026-05-08 06:51 | 15.53799 | 120.52582 | 8129 ft | 277 kts | 169° |
| 2026-05-08 06:51 | 15.51904 | 120.52969 | 7729 ft | 278 kts | 169° |
| 2026-05-08 06:51 | 15.50007 | 120.53356 | 7328 ft | 278 kts | 169° |
| 2026-05-08 06:52 | 15.48122 | 120.53741 | 6931 ft | 279 kts | 169° |
| 2026-05-08 06:52 | 15.46239 | 120.54126 | 6535 ft | 279 kts | 169° |
| 2026-05-08 06:52 | 15.44339 | 120.54514 | 6125 ft | 273 kts | 169° |
| 2026-05-08 06:52 | 15.42559 | 120.54995 | 5661 ft | 264 kts | 153° |
| 2026-05-08 06:53 | 15.41233 | 120.56242 | 5145 ft | 255 kts | 118° |
| 2026-05-08 06:53 | 15.40565 | 120.57895 | 4663 ft | 248 kts | 106° |
| 2026-05-08 06:53 | 15.40065 | 120.59583 | 4193 ft | 242 kts | 105° |
| 2026-05-08 06:53 | 15.39549 | 120.61221 | 3806 ft | 241 kts | 111° |
| 2026-05-08 06:54 | 15.38574 | 120.62610 | 3501 ft | 240 kts | 143° |
| 2026-05-08 06:54 | 15.37089 | 120.63244 | 3311 ft | 232 kts | 176° |
| 2026-05-08 06:54 | 15.35525 | 120.63050 | 3142 ft | 223 kts | 198° |
| 2026-05-08 06:54 | 15.34092 | 120.62485 | 3007 ft | 214 kts | 204° |
| 2026-05-08 06:55 | 15.32748 | 120.61878 | 2997 ft | 210 kts | 204° |
| 2026-05-08 06:55 | 15.31402 | 120.61304 | 2837 ft | 208 kts | 202° |
| 2026-05-08 06:55 | 15.30089 | 120.60779 | 2574 ft | 200 kts | 201° |
| 2026-05-08 06:55 | 15.28811 | 120.60281 | 2248 ft | 192 kts | 201° |
| 2026-05-08 06:56 | 15.27622 | 120.59818 | 2039 ft | 178 kts | 201° |
| 2026-05-08 06:56 | 15.26488 | 120.59372 | 1783 ft | 167 kts | 201° |
| 2026-05-08 06:56 | 15.25442 | 120.58958 | 1577 ft | 157 kts | 201° |
| 2026-05-08 06:56 | 15.24431 | 120.58559 | 1391 ft | 155 kts | 201° |
| 2026-05-08 06:57 | 15.23460 | 120.58174 | 1172 ft | 146 kts | 201° |
| 2026-05-08 06:57 | 15.22512 | 120.57800 | 1001 ft | 145 kts | 201° |
| 2026-05-08 06:57 | 15.21581 | 120.57432 | 809 ft | 144 kts | 201° |
| 2026-05-08 06:57 | 15.20639 | 120.57059 | 593 ft | 143 kts | 201° |
| 2026-05-08 06:58 | 15.19713 | 120.56687 | 474 ft | 135 kts | 202° |
| 2026-05-08 06:58 | 15.19000 | 120.56403 | 474 ft | 86 kts | 201° |
| 2026-05-08 06:58 | 15.18530 | 120.56217 | 474 ft | 56 kts | 200° |
| 2026-05-08 06:58 | 15.18283 | 120.56120 | 474 ft | 21 kts | 201° |
| 2026-05-08 06:59 | 15.18171 | 120.56076 | 474 ft | 9 kts | 201° |
| 2026-05-08 06:59 | 15.18138 | 120.56022 | 474 ft | 10 kts | 280° |
| 2026-05-08 06:59 | 15.18164 | 120.55952 | 474 ft | 10 kts | 291° |
| 2026-05-08 06:59 | 15.18192 | 120.55877 | 474 ft | 11 kts | 290° |
| 2026-05-08 07:00 | 15.18220 | 120.55801 | 474 ft | 11 kts | 291° |
| 2026-05-08 07:00 | 15.18252 | 120.55720 | 474 ft | 11 kts | 303° |
| 2026-05-08 07:00 | 15.18324 | 120.55709 | 474 ft | 11 kts | 21° |
| 2026-05-08 07:00 | 15.18416 | 120.55747 | 474 ft | 17 kts | 20° |
| 2026-05-08 07:01 | 15.18544 | 120.55797 | 474 ft | 19 kts | 20° |
| 2026-05-08 07:01 | 15.18656 | 120.55841 | 474 ft | 16 kts | 21° |
| 2026-05-08 07:01 | 15.18762 | 120.55883 | 474 ft | 15 kts | 20° |
| 2026-05-08 07:01 | 15.18861 | 120.55922 | 474 ft | 15 kts | 20° |
| 2026-05-08 07:02 | 15.18959 | 120.55961 | 474 ft | 15 kts | 21° |
| 2026-05-08 07:02 | 15.19055 | 120.55999 | 474 ft | 12 kts | 21° |
| 2026-05-08 07:02 | 15.19126 | 120.55997 | 474 ft | 9 kts | 307° |
| 2026-05-08 07:02 | 15.19176 | 120.55957 | 474 ft | 10 kts | 9° |
| 2026-05-08 07:03 | 15.19245 | 120.55983 | 474 ft | 10 kts | 21° |
| 2026-05-08 07:03 | 15.19314 | 120.56010 | 474 ft | 10 kts | 21° |
| 2026-05-08 07:03 | 15.19380 | 120.56036 | 474 ft | 9 kts | 21° |
| 2026-05-08 07:03 | 15.19439 | 120.56059 | 474 ft | 6 kts | 20° |
| 2026-05-08 07:04 | 15.19467 | 120.56045 | 474 ft | 4 kts | 292° |
| 2026-05-08 07:04 | 15.19478 | 120.56014 | 474 ft | 4 kts | 291° |
| 2026-05-08 07:04 | 15.19486 | 120.55994 | 474 ft | 1 kts | 291° |
| 2026-05-08 07:04 | 15.19488 | 120.55989 | 474 ft | 0 kts | 291° |